Time;durP1;ratioP1;P1;durP2;ratioP2;P2;SDS_P1;SDS_P2;PMS_P1;PMS_P2;Temp;Humidity;BMP_temperature;BMP_pressure;BME280_temperature;BME280_humidity;BME280_pressure;Samples;Min_cycle;Max_cycle;Signal;HPM_P1;HPM_P2
2023/02/20 00:01:54;;;;;;;3.50;1.60;;;;;;;-0.90;71.64;99044.17;106897;1258;69106;-73
2023/02/20 00:04:24;;;;;;;3.70;1.60;;;;;;;-0.78;71.45;99045.43;107148;1256;72759;-72
2023/02/20 00:06:56;;;;;;;4.50;1.80;;;;;;;-0.76;71.09;99042.83;106564;1256;60460;-70
2023/02/20 00:09:27;;;;;;;4.20;1.70;;;;;;;-0.80;71.16;99043.60;106013;1259;60534;-72
2023/02/20 00:11:56;;;;;;;4.90;2.00;;;;;;;-0.83;71.02;99042.66;106152;1256;75108;-72
2023/02/20 00:14:28;;;;;;;4.30;2.00;;;;;;;-0.88;70.96;99046.14;106167;1259;70644;-70
2023/02/20 00:16:57;;;;;;;4.40;1.60;;;;;;;-0.93;70.83;99042.14;106116;1253;74001;-73
2023/02/20 00:19:27;;;;;;;4.70;1.60;;;;;;;-0.96;70.79;99045.70;106406;1254;60424;-70
2023/02/20 00:21:59;;;;;;;3.30;1.60;;;;;;;-1.01;71.00;99041.00;106806;1254;60472;-71
2023/02/20 00:24:27;;;;;;;3.80;1.60;;;;;;;-1.04;70.98;99036.86;106489;1258;74709;-71
2023/02/20 00:26:56;;;;;;;5.60;1.40;;;;;;;-0.95;70.91;99037.08;106446;1259;68811;-72
2023/02/20 00:29:24;;;;;;;3.60;1.70;;;;;;;-0.86;70.90;99039.21;106649;1256;73099;-70
2023/02/20 00:31:56;;;;;;;3.40;1.70;;;;;;;-0.90;70.81;99037.40;106804;1259;60530;-72
2023/02/20 00:34:26;;;;;;;5.30;2.00;;;;;;;-0.94;71.01;99035.67;107065;1256;60391;-71
2023/02/20 00:37:02;;;;;;;5.00;1.40;;;;;;;-0.99;70.89;99036.14;107130;1252;72347;-73
2023/02/20 00:39:31;;;;;;;3.50;1.70;;;;;;;-1.02;70.80;99033.27;106185;1254;68491;-71
2023/02/20 00:41:59;;;;;;;3.10;1.60;;;;;;;-1.06;71.08;99034.58;106219;1256;73525;-72
2023/02/20 00:44:32;;;;;;;4.90;1.80;;;;;;;-1.09;71.07;99033.79;106113;1254;60562;-72
2023/02/20 00:47:02;;;;;;;6.00;2.10;;;;;;;-1.12;71.20;99033.48;106175;1254;60404;-72
2023/02/20 00:49:31;;;;;;;6.70;1.80;;;;;;;-1.07;71.24;99029.24;105970;1259;73733;-73
2023/02/20 00:52:20;;;;;;;3.10;1.80;;;;;;;-0.98;71.11;99026.73;106173;1254;71220;-73
2023/02/20 00:54:50;;;;;;;6.80;2.50;;;;;;;-1.01;70.95;99031.06;106151;1257;73471;-73
2023/02/20 00:57:18;;;;;;;5.60;2.10;;;;;;;-1.04;70.82;99028.21;105921;1254;60534;-74
2023/02/20 00:59:47;;;;;;;5.00;1.80;;;;;;;-1.09;70.84;99030.25;106132;1253;60505;-75
2023/02/20 01:02:37;;;;;;;4.20;1.90;;;;;;;-1.13;70.89;99030.60;106192;1256;75335;-75
2023/02/20 01:05:06;;;;;;;4.50;2.00;;;;;;;-1.16;70.83;99035.16;106019;1260;69698;-75
2023/02/20 01:07:36;;;;;;;4.00;2.00;;;;;;;-1.20;71.03;99036.65;106089;1260;73689;-74
2023/02/20 01:10:09;;;;;;;3.50;1.70;;;;;;;-1.25;70.99;99036.11;106179;1254;60537;-77
2023/02/20 01:12:37;;;;;;;3.00;1.80;;;;;;;-1.19;71.15;99036.37;106588;1254;60734;-75
2023/02/20 01:15:07;;;;;;;3.90;1.60;;;;;;;-1.08;71.08;99038.76;106196;1256;72981;-75
2023/02/20 01:17:35;;;;;;;4.10;1.70;;;;;;;-1.11;71.06;99037.35;106916;1257;71274;-74
2023/02/20 01:20:06;;;;;;;3.40;1.70;;;;;;;-1.14;71.01;99036.41;107407;1254;74802;-74
2023/02/20 01:22:34;;;;;;;4.40;1.50;;;;;;;-1.18;70.89;99034.92;108245;1254;59119;-75
2023/02/20 01:25:03;;;;;;;5.10;2.40;;;;;;;-1.20;70.81;99035.59;109340;1253;60174;-73
2023/02/20 01:27:31;;;;;;;5.30;2.50;;;;;;;-1.23;71.05;99035.94;108016;1254;73925;-77
2023/02/20 01:30:02;;;;;;;6.50;1.70;;;;;;;-1.25;71.00;99036.83;106153;1253;70166;-73
2023/02/20 01:32:32;;;;;;;3.30;1.30;;;;;;;-1.28;70.94;99033.91;106218;1254;72302;-76
2023/02/20 01:35:00;;;;;;;4.10;1.40;;;;;;;-1.18;70.75;99037.89;105981;1255;60563;-77
2023/02/20 01:37:30;;;;;;;2.20;1.20;;;;;;;-1.14;70.44;99037.63;106137;1254;60559;-76
2023/02/20 01:39:59;;;;;;;3.50;1.40;;;;;;;-1.19;70.41;99032.25;106576;1253;72601;-77
2023/02/20 01:42:31;;;;;;;4.90;1.40;;;;;;;-1.23;70.32;99038.62;106707;1254;71219;-74
2023/02/20 01:45:21;;;;;;;4.80;2.10;;;;;;;-1.29;70.20;99031.77;106317;1256;72460;-73
2023/02/20 01:47:52;;;;;;;3.60;1.70;;;;;;;-1.33;70.12;99035.54;105853;1260;60519;-75
2023/02/20 01:50:40;;;;;;;3.90;1.70;;;;;;;-1.37;70.14;99038.39;107224;1252;60446;-74
2023/02/20 01:53:11;;;;;;;3.30;1.30;;;;;;;-1.42;70.34;99041.83;106293;1259;73963;-74
2023/02/20 01:55:44;;;;;;;3.40;1.40;;;;;;;-1.44;70.49;99040.42;106133;1254;69513;-72
2023/02/20 01:58:15;;;;;;;4.40;2.20;;;;;;;-1.35;70.52;99045.89;105957;1259;72705;-74
2023/02/20 02:00:44;;;;;;;3.60;1.50;;;;;;;-1.30;70.39;99046.77;106042;1254;60453;-75
2023/02/20 02:03:22;;;;;;;2.70;1.10;;;;;;;-1.34;70.40;99044.23;106045;1254;60460;-75
2023/02/20 02:05:58;;;;;;;3.00;1.50;;;;;;;-1.38;70.53;99047.16;106083;1254;72897;-74
2023/02/20 02:08:29;;;;;;;4.10;1.70;;;;;;;-1.44;70.55;99043.55;106207;1254;70616;-76
2023/02/20 02:11:02;;;;;;;3.00;1.40;;;;;;;-1.48;70.69;99046.43;106121;1259;72439;-75
2023/02/20 02:13:35;;;;;;;5.70;1.90;;;;;;;-1.52;70.79;99042.59;105604;1254;60569;-71
2023/02/20 02:16:16;;;;;;;4.30;1.90;;;;;;;-1.56;70.73;99038.67;105804;1254;60550;-74
2023/02/20 02:19:22;;;;;;;3.40;1.40;;;;;;;-1.58;70.98;99037.95;105785;1255;72262;-71
2023/02/20 02:21:57;;;;;;;4.90;1.60;;;;;;;-1.47;70.79;99043.79;106966;1254;69762;-73
2023/02/20 02:24:37;;;;;;;3.90;2.00;;;;;;;-1.48;70.65;99040.23;107835;1254;71731;-68
2023/02/20 02:27:12;;;;;;;4.20;1.60;;;;;;;-1.53;70.80;99041.77;106638;1253;60401;-70
2023/02/20 02:29:49;;;;;;;3.60;1.80;;;;;;;-1.57;70.94;99043.08;106536;1256;60869;-73
2023/02/20 02:32:39;;;;;;;5.50;1.70;;;;;;;-1.61;70.79;99048.77;106449;1256;73196;-72
2023/02/20 02:35:50;;;;;;;5.00;2.10;;;;;;;-1.66;71.14;99049.32;106519;1253;70540;-73
2023/02/20 02:38:37;;;;;;;3.70;1.90;;;;;;;-1.72;71.22;99053.85;106324;1267;71947;-73
2023/02/20 02:41:07;;;;;;;3.10;1.60;;;;;;;-1.71;71.29;99052.60;106363;1254;60455;-75
2023/02/20 02:43:51;;;;;;;2.90;1.50;;;;;;;-1.62;71.14;99053.52;106735;1254;60339;-72
2023/02/20 02:46:50;;;;;;;6.60;1.50;;;;;;;-1.63;70.93;99054.61;107011;1259;74394;-72
2023/02/20 02:49:54;;;;;;;2.70;1.40;;;;;;;-1.69;70.96;99058.48;107092;1253;71692;-75
2023/02/20 02:55:15;;;;;;;6.10;1.80;;;;;;;-1.77;71.06;99051.61;107787;1256;60460;-74
2023/02/20 02:57:43;;;;;;;3.80;1.90;;;;;;;-1.80;71.13;99046.59;107757;1253;61087;-76
2023/02/20 03:00:12;;;;;;;4.90;1.60;;;;;;;-1.83;71.24;99047.12;107560;1259;72886;-78
2023/02/20 03:03:28;;;;;;;3.30;1.50;;;;;;;-1.75;71.00;99052.35;107679;1260;69027;-75
2023/02/20 03:06:04;;;;;;;2.70;1.50;;;;;;;-1.67;70.82;99048.69;107724;1256;72247;-76
2023/02/20 03:08:38;;;;;;;2.70;1.10;;;;;;;-1.72;70.77;99046.76;106889;1255;60543;-72
2023/02/20 03:11:10;;;;;;;3.50;1.50;;;;;;;-1.76;70.79;99045.14;106582;1257;60463;-71
2023/02/20 03:16:53;;;;;;;3.00;1.30;;;;;;;-1.85;70.82;99049.73;106799;1257;69495;-72
2023/02/20 03:19:32;;;;;;;3.70;1.70;;;;;;;-1.89;70.79;99047.60;106980;1257;72901;-74
2023/02/20 03:22:01;;;;;;;2.90;1.30;;;;;;;-1.93;71.00;99045.30;109041;1254;59491;-73
2023/02/20 03:24:30;;;;;;;4.90;1.40;;;;;;;-1.91;70.87;99044.40;109287;1254;58584;-72
2023/02/20 03:27:00;;;;;;;3.80;1.40;;;;;;;-1.79;70.63;99049.63;109534;1252;73819;-75
2023/02/20 03:29:33;;;;;;;6.10;1.40;;;;;;;-1.76;70.44;99049.98;108777;1253;70850;-73
2023/02/20 03:43:25;;;;;;;4.30;1.60;;;;;;;-1.92;70.08;99051.92;107732;1253;70965;-71
2023/02/20 03:46:14;;;;;;;5.90;1.60;;;;;;;-1.95;70.13;99056.50;107247;1255;72801;-71
2023/02/20 03:48:53;;;;;;;2.50;1.20;;;;;;;-1.94;70.02;99052.98;107459;1259;61990;-72
2023/02/20 03:54:16;;;;;;;;;;;;;;;-1.83;69.66;99058.73;108331;1254;73813;-73
2023/02/20 03:56:51;;;;;;;4.30;1.10;;;;;;;-1.87;69.65;99057.69;107268;1260;70082;-72
2023/02/20 03:59:42;;;;;;;2.40;1.00;;;;;;;-1.92;69.64;99052.30;105965;1257;72774;-74
2023/02/20 04:02:19;;;;;;;3.60;1.30;;;;;;;-1.98;69.57;99052.55;107299;1254;60706;-73
2023/02/20 04:04:50;;;;;;;2.00;0.90;;;;;;;-2.02;69.60;99050.56;106052;1260;61478;-75
2023/02/20 04:07:40;;;;;;;1.30;1.00;;;;;;;-2.07;69.66;99055.38;106359;1260;73793;-75
2023/02/20 04:10:13;;;;;;;3.80;1.10;;;;;;;-2.11;69.76;99054.65;106307;1257;69994;-75
2023/02/20 04:12:42;;;;;;;3.80;1.20;;;;;;;-2.15;69.84;99054.40;106282;1254;72491;-77
2023/02/20 04:15:11;;;;;;;2.00;1.00;;;;;;;-2.10;69.77;99047.42;106305;1258;62692;-77
2023/02/20 04:18:06;;;;;;;3.20;1.20;;;;;;;-2.01;69.78;99050.48;106089;1254;60447;-77
2023/02/20 04:20:35;;;;;;;2.50;1.10;;;;;;;-2.05;69.78;99048.69;106256;1255;73512;-75
2023/02/20 04:23:13;;;;;;;2.80;1.60;;;;;;;-2.10;69.72;99046.77;106436;1256;70259;-75
2023/02/20 04:26:03;;;;;;;4.30;1.20;;;;;;;-2.14;69.76;99044.80;106996;1261;71842;-74
2023/02/20 04:28:33;;;;;;;2.80;1.50;;;;;;;-2.18;69.75;99049.36;108535;1260;61473;-74
2023/02/20 04:31:03;;;;;;;3.50;1.40;;;;;;;-2.20;69.73;99043.78;107775;1256;60434;-74
2023/02/20 04:33:34;;;;;;;3.60;1.40;;;;;;;-2.24;69.80;99039.00;106421;1254;74800;-75
2023/02/20 04:36:07;;;;;;;2.40;1.10;;;;;;;-2.27;69.79;99033.86;106679;1254;69833;-76
2023/02/20 04:38:37;;;;;;;3.20;1.10;;;;;;;-2.27;69.87;99037.34;106338;1254;73630;-75
2023/02/20 04:41:07;;;;;;;5.40;1.60;;;;;;;-2.14;69.71;99035.23;106359;1254;60371;-74
2023/02/20 04:43:36;;;;;;;3.80;1.30;;;;;;;-2.09;69.63;99041.28;106928;1254;61343;-77
2023/02/20 04:46:07;;;;;;;3.00;1.30;;;;;;;-2.11;69.70;99042.68;109326;1254;71911;-76
2023/02/20 04:48:36;;;;;;;3.30;1.30;;;;;;;-2.13;69.56;99038.15;109335;1259;69434;-75
2023/02/20 04:51:06;;;;;;;3.80;1.40;;;;;;;-2.16;69.75;99037.79;106961;1260;72662;-75
2023/02/20 04:53:35;;;;;;;3.00;1.30;;;;;;;-2.18;69.73;99039.31;106242;1254;61340;-76
2023/02/20 04:56:04;;;;;;;2.70;1.30;;;;;;;-2.21;69.78;99038.64;106416;1260;60426;-74
2023/02/20 04:58:36;;;;;;;7.80;1.10;;;;;;;-2.25;69.91;99043.09;106111;1255;73748;-75
2023/02/20 05:01:15;;;;;;;2.70;1.40;;;;;;;-2.29;69.95;99039.92;106965;1257;69945;-75
2023/02/20 05:03:45;;;;;;;2.80;1.20;;;;;;;-2.30;70.05;99037.33;106314;1257;73436;-75
2023/02/20 05:06:14;;;;;;;2.90;1.30;;;;;;;-2.17;70.15;99042.70;106796;1255;60732;-75
2023/02/20 05:08:46;;;;;;;2.30;1.20;;;;;;;-2.13;69.94;99046.30;106277;1254;60531;-74
2023/02/20 05:11:17;;;;;;;2.30;1.10;;;;;;;-2.18;70.04;99044.02;106353;1254;72692;-74
2023/02/20 05:13:47;;;;;;;4.00;1.80;;;;;;;-2.23;70.31;99042.24;106338;1257;180248;-74
2023/02/20 05:17:28;;;;;;;3.70;1.20;;;;;;;-2.25;70.48;99038.23;102818;1292;599618;-74
2023/02/20 05:19:56;;;;;;;3.40;1.50;;;;;;;-2.30;70.53;99045.14;105275;1274;59109;-75
2023/02/20 05:22:24;;;;;;;2.50;1.40;;;;;;;-2.31;70.52;99045.73;105990;1258;61054;-71
2023/02/20 05:24:53;;;;;;;3.40;1.40;;;;;;;-2.25;70.42;99041.73;106007;1260;71635;-72
2023/02/20 05:27:22;;;;;;;2.40;1.30;;;;;;;-2.10;70.25;99047.11;106526;1256;70065;-73
2023/02/20 05:29:56;;;;;;;3.80;1.30;;;;;;;-2.09;70.16;99054.11;107027;1257;73936;-72
2023/02/20 05:32:26;;;;;;;6.20;1.60;;;;;;;-2.11;70.14;99049.59;106704;1259;61113;-73
2023/02/20 05:34:55;;;;;;;3.20;1.90;;;;;;;-2.11;70.18;99049.29;106113;1255;61117;-76
2023/02/20 05:37:25;;;;;;;4.00;1.40;;;;;;;-2.11;70.09;99053.26;106084;1255;73225;-76
2023/02/20 05:39:53;;;;;;;3.10;1.60;;;;;;;-2.12;70.02;99048.59;106095;1254;70634;-74
2023/02/20 05:42:22;;;;;;;4.40;1.30;;;;;;;-2.11;70.10;99053.96;105908;1258;72711;-74
2023/02/20 05:44:52;;;;;;;5.90;1.50;;;;;;;-2.11;70.05;99069.02;106156;1256;61702;-75
2023/02/20 05:47:21;;;;;;;3.20;1.70;;;;;;;-2.03;70.04;99068.33;106048;1255;59614;-74
2023/02/20 05:49:50;;;;;;;3.10;1.20;;;;;;;-1.88;69.59;99059.61;106213;1255;72960;-70
2023/02/20 05:52:18;;;;;;;3.40;1.10;;;;;;;-1.85;69.30;99063.40;105954;1255;69432;-72
2023/02/20 05:54:47;;;;;;;4.80;1.40;;;;;;;-1.85;69.26;99065.33;106173;1254;72691;-72
2023/02/20 05:57:16;;;;;;;4.70;2.00;;;;;;;-1.85;69.25;99065.84;106016;1254;59719;-74
2023/02/20 05:59:45;;;;;;;5.10;1.70;;;;;;;-1.84;69.29;99065.79;106231;1254;60701;-72
2023/02/20 06:02:13;;;;;;;2.00;1.30;;;;;;;-1.83;69.01;99066.59;105994;1254;73033;-71
2023/02/20 06:04:42;;;;;;;3.90;1.80;;;;;;;-1.81;69.10;99070.30;105652;1254;70885;-74
2023/02/20 06:07:10;;;;;;;4.10;1.40;;;;;;;-1.79;68.94;99068.06;105881;1255;73632;-73
2023/02/20 06:09:43;;;;;;;3.00;1.40;;;;;;;-1.76;68.96;99067.16;105455;1253;60144;-74
2023/02/20 06:12:11;;;;;;;4.90;1.90;;;;;;;-1.74;68.76;99063.01;105651;1254;60130;-74
2023/02/20 06:14:40;;;;;;;6.10;1.60;;;;;;;-1.71;68.66;99071.34;105872;1254;74057;-75
2023/02/20 06:17:08;;;;;;;3.70;1.60;;;;;;;-1.68;68.64;99068.88;105799;1254;69331;-75
2023/02/20 06:19:37;;;;;;;4.10;1.60;;;;;;;-1.55;68.29;99077.13;105795;1256;74009;-72
2023/02/20 06:22:05;;;;;;;5.20;1.60;;;;;;;-1.40;68.01;99074.69;105718;1257;59685;-71
2023/02/20 06:24:38;;;;;;;4.50;1.90;;;;;;;-1.34;67.87;99078.81;105894;1254;61034;-72
2023/02/20 06:27:07;;;;;;;3.60;1.50;;;;;;;-1.31;67.33;99075.48;105733;1255;73090;-72
2023/02/20 06:29:36;;;;;;;6.20;1.80;;;;;;;-1.30;67.12;99075.94;107105;1255;70802;-69
2023/02/20 06:32:05;;;;;;;9.90;2.10;;;;;;;-1.27;67.07;99081.83;108226;1258;72447;-72
2023/02/20 06:34:37;;;;;;;10.00;2.10;;;;;;;-1.22;67.02;99086.15;106471;1258;60769;-72
2023/02/20 06:37:06;;;;;;;4.30;2.00;;;;;;;-1.18;66.87;99083.21;106133;1258;62167;-72
2023/02/20 06:39:35;;;;;;;4.00;2.00;;;;;;;-1.13;66.74;99085.19;106020;1255;73798;-73
2023/02/20 06:42:04;;;;;;;5.20;2.00;;;;;;;-1.09;66.67;99081.40;105739;1258;70435;-74
2023/02/20 06:44:33;;;;;;;4.50;1.40;;;;;;;-1.07;66.36;99079.84;105934;1260;73577;-74
2023/02/20 06:47:01;;;;;;;5.20;1.10;;;;;;;-1.03;66.11;99085.99;105887;1259;59628;-73
2023/02/20 06:49:31;;;;;;;5.30;1.50;;;;;;;-1.01;65.91;99085.80;105889;1253;61605;-73
2023/02/20 06:52:00;;;;;;;5.60;1.60;;;;;;;-0.96;65.87;99085.89;106287;1254;70559;-78
2023/02/20 06:54:33;;;;;;;4.70;1.70;;;;;;;-0.92;65.85;99081.20;105841;1255;70864;-75
2023/02/20 06:57:01;;;;;;;9.20;4.80;;;;;;;-0.86;65.80;99084.25;105781;1260;71180;-74
2023/02/20 06:59:38;;;;;;;10.10;1.80;;;;;;;-0.84;65.42;99084.96;105777;1254;59537;-73
2023/02/20 07:02:10;;;;;;;5.30;1.80;;;;;;;-0.78;65.09;99086.47;105745;1257;61255;-72
2023/02/20 07:04:40;;;;;;;5.60;2.00;;;;;;;-0.77;65.02;99089.15;105849;1257;71976;-74
2023/02/20 07:07:08;;;;;;;5.90;2.30;;;;;;;-0.73;65.39;99087.30;105781;1256;67926;-73
2023/02/20 07:09:38;;;;;;;5.70;2.30;;;;;;;-0.68;65.25;99088.67;106005;1254;72306;-72
2023/02/20 07:12:08;;;;;;;4.10;1.90;;;;;;;-0.63;64.67;99090.02;106066;1254;60471;-72
2023/02/20 07:14:37;;;;;;;9.80;2.00;;;;;;;-0.59;64.55;99093.38;106196;1258;60561;-73
2023/02/20 07:17:05;;;;;;;3.80;1.80;;;;;;;-0.54;64.37;99092.70;106221;1256;73956;-74
2023/02/20 07:19:34;;;;;;;14.50;3.60;;;;;;;-0.49;64.20;99086.96;105953;1255;71239;-75
2023/02/20 07:22:02;;;;;;;5.80;2.00;;;;;;;-0.44;63.85;99081.48;105963;1255;73561;-73
2023/02/20 07:24:31;;;;;;;5.10;1.80;;;;;;;-0.40;63.70;99081.23;105932;1260;59621;-74
2023/02/20 07:26:59;;;;;;;8.00;2.40;;;;;;;-0.36;63.82;99079.50;105842;1260;60269;-79
2023/02/20 07:29:27;;;;;;;6.50;2.10;;;;;;;-0.28;63.69;99075.27;107065;1254;72877;-75
2023/02/20 07:31:55;;;;;;;4.10;1.80;;;;;;;-0.20;63.44;99076.91;108185;1254;68793;-71
2023/02/20 07:34:24;;;;;;;6.00;2.20;;;;;;;-0.10;63.37;99082.83;107238;1258;71903;-74
2023/02/20 07:36:52;;;;;;;7.90;2.80;;;;;;;-0.02;62.95;99087.56;105751;1258;60286;-74
2023/02/20 07:39:21;;;;;;;9.30;3.00;;;;;;;0.07;62.41;99085.17;105793;1253;59884;-74
2023/02/20 07:41:49;;;;;;;9.00;2.90;;;;;;;0.13;62.55;99082.25;105789;1258;73699;-73
2023/02/20 07:44:45;;;;;;;;;;;;;;;0.22;62.13;99076.92;105736;1254;70237;-74
2023/02/20 07:47:14;;;;;;;5.50;1.50;;;;;;;0.28;61.99;99079.75;105717;1259;73037;-76
2023/02/20 07:49:42;;;;;;;7.60;2.10;;;;;;;0.34;61.15;99071.95;105837;1254;60172;-73
2023/02/20 07:52:12;;;;;;;6.10;2.40;;;;;;;0.39;60.81;99076.61;105881;1254;60615;-72
2023/02/20 07:54:40;;;;;;;6.50;1.90;;;;;;;0.43;60.51;99068.96;105799;1254;73186;-75
2023/02/20 07:57:09;;;;;;;4.20;1.60;;;;;;;0.46;60.35;99069.40;105794;1254;71346;-75
2023/02/20 07:59:38;;;;;;;5.30;1.90;;;;;;;0.50;60.11;99064.23;106028;1254;72507;-76
2023/02/20 08:02:06;;;;;;;7.50;2.30;;;;;;;0.55;60.10;99065.92;105703;1256;59834;-75
2023/02/20 08:04:35;;;;;;;5.70;2.10;;;;;;;0.62;60.20;99066.61;105880;1255;60032;-71
2023/02/20 08:07:05;;;;;;;5.80;2.30;;;;;;;0.69;59.49;99062.05;105852;1254;74344;-74
2023/02/20 08:09:34;;;;;;;5.60;1.90;;;;;;;0.79;59.59;99073.47;105777;1255;69874;-74
2023/02/20 08:12:02;;;;;;;5.60;1.60;;;;;;;0.88;59.62;99078.02;106010;1254;73666;-76
2023/02/20 08:14:34;;;;;;;5.90;2.00;;;;;;;0.97;59.11;99074.79;105839;1254;59755;-78
2023/02/20 08:17:04;;;;;;;3.70;1.90;;;;;;;1.08;58.75;99073.25;105761;1261;59630;-80
2023/02/20 08:19:32;;;;;;;4.60;1.50;;;;;;;1.17;58.52;99068.00;105861;1254;72105;-80
2023/02/20 08:22:00;;;;;;;4.80;1.50;;;;;;;1.24;57.41;99074.06;106265;1258;70028;-79
2023/02/20 08:24:28;;;;;;;7.40;2.90;;;;;;;1.29;57.68;99076.55;105746;1254;72522;-80
2023/02/20 08:26:57;;;;;;;6.60;3.30;;;;;;;1.39;57.90;99072.66;106374;1254;60605;-80
2023/02/20 08:29:26;;;;;;;4.60;2.80;;;;;;;1.50;57.58;99073.48;106097;1256;61353;-73
2023/02/20 08:31:55;;;;;;;5.20;2.30;;;;;;;1.59;57.29;99081.98;107106;1256;73260;-76
2023/02/20 08:34:23;;;;;;;6.90;2.30;;;;;;;1.68;56.91;99071.61;106965;1254;71119;-75
2023/02/20 08:36:52;;;;;;;8.30;2.40;;;;;;;1.80;56.92;99069.48;106375;1258;72644;-76
2023/02/20 08:39:20;;;;;;;3.60;1.90;;;;;;;1.91;56.40;99068.02;106317;1254;59742;-74
2023/02/20 08:41:49;;;;;;;7.30;1.90;;;;;;;2.01;55.14;99061.96;106008;1254;59694;-77
2023/02/20 08:44:17;;;;;;;4.90;1.80;;;;;;;2.08;55.51;99064.94;107839;1254;73926;-73
2023/02/20 08:46:51;;;;;;;4.60;1.80;;;;;;;2.20;55.82;99069.38;108485;1255;70380;-76
2023/02/20 08:49:19;;;;;;;6.90;2.20;;;;;;;2.37;55.20;99070.54;108710;1255;72610;-77
2023/02/20 08:51:54;;;;;;;4.80;2.30;;;;;;;2.52;54.41;99070.64;108985;1255;59349;-81
2023/02/20 08:54:23;;;;;;;9.90;2.70;;;;;;;2.62;54.27;99070.86;108470;1255;60398;-75
2023/02/20 08:56:53;;;;;;;4.40;1.90;;;;;;;2.72;54.41;99065.06;108744;1255;73181;-75
2023/02/20 08:59:30;;;;;;;7.50;1.90;;;;;;;2.88;53.91;99060.65;109269;1255;70194;-79
2023/02/20 09:01:58;;;;;;;5.50;2.00;;;;;;;3.06;52.90;99063.11;108901;1254;72602;-80
2023/02/20 09:04:26;;;;;;;3.30;1.80;;;;;;;3.18;52.57;99056.61;108377;1254;59186;-74
2023/02/20 09:06:56;;;;;;;4.30;1.80;;;;;;;3.31;52.59;99066.81;108764;1254;60126;-76
2023/02/20 09:09:24;;;;;;;4.00;1.90;;;;;;;3.51;52.62;99064.15;108781;1254;72834;-76
2023/02/20 09:11:52;;;;;;;6.40;1.90;;;;;;;3.80;52.92;99061.54;108330;1255;70011;-76
2023/02/20 09:14:20;;;;;;;5.50;2.20;;;;;;;4.07;51.41;99062.70;109023;1255;71434;-76
2023/02/20 09:16:52;;;;;;;2.30;1.50;;;;;;;4.32;51.08;99057.54;109113;1254;59246;-76
2023/02/20 09:19:25;;;;;;;5.50;2.10;;;;;;;4.52;50.57;99064.27;109099;1254;60782;-77
2023/02/20 09:21:55;;;;;;;6.50;1.70;;;;;;;4.70;49.62;99055.70;108273;1254;73234;-77
2023/02/20 09:24:24;;;;;;;3.60;1.70;;;;;;;4.97;49.46;99060.20;108653;1254;69258;-77
2023/02/20 09:26:55;;;;;;;4.90;1.70;;;;;;;5.40;48.87;99057.54;109077;1255;73449;-76
2023/02/20 09:29:25;;;;;;;4.00;2.20;;;;;;;5.89;46.83;99057.52;109051;1257;58219;-79
2023/02/20 09:31:53;;;;;;;5.20;2.30;;;;;;;6.15;46.14;99051.77;109162;1254;59785;-77
2023/02/20 09:34:23;;;;;;;9.80;2.50;;;;;;;6.46;45.28;99050.91;109022;1254;73346;-75
2023/02/20 09:36:52;;;;;;;3.40;2.40;;;;;;;6.90;44.83;99050.77;108536;1254;70270;-74
2023/02/20 09:39:23;;;;;;;4.40;2.80;;;;;;;7.36;43.99;99051.15;108622;1254;73986;-77
2023/02/20 09:42:39;;;;;;;;;;;;;;;;;;;;;
2023/02/20 09:45:35;;;;;;;4.80;2.70;;;;;;;8.59;42.51;99036.70;108908;1255;60435;-75
2023/02/20 09:48:19;;;;;;;7.30;2.70;;;;;;;9.04;40.94;99031.45;108323;1255;74617;-75
2023/02/20 09:50:56;;;;;;;5.80;2.80;;;;;;;9.32;40.73;99033.70;108233;1254;70299;-77
2023/02/20 09:53:36;;;;;;;4.80;2.10;;;;;;;9.82;39.92;99035.50;108037;1255;72029;-75
2023/02/20 09:56:10;;;;;;;5.90;2.60;;;;;;;10.36;39.07;99028.28;107931;1254;60034;-75
2023/02/20 09:59:03;;;;;;;3.40;2.20;;;;;;;10.84;38.36;99030.15;107839;1255;61217;-78
2023/02/20 10:01:33;;;;;;;3.10;2.40;;;;;;;11.21;36.95;99025.42;107259;1258;73623;-75
2023/02/20 10:04:17;;;;;;;5.50;2.30;;;;;;;11.18;37.12;99022.21;106136;1259;70238;-76
2023/02/20 10:06:45;;;;;;;;;;;;;;;11.41;37.62;99013.84;105812;1256;71971;-77
2023/02/20 10:09:15;;;;;;;5.60;2.40;;;;;;;11.66;36.00;99009.33;105679;1255;60400;-76
2023/02/20 10:11:46;;;;;;;3.50;2.40;;;;;;;11.54;36.07;99008.78;105783;1256;60410;-75
2023/02/20 10:14:39;;;;;;;4.70;2.30;;;;;;;11.40;36.10;99011.85;105901;1256;74815;-73
2023/02/20 10:17:15;;;;;;;3.20;2.60;;;;;;;11.37;36.25;99013.14;105994;1260;71297;-73
2023/02/20 10:19:59;;;;;;;7.70;2.70;;;;;;;11.44;35.80;99007.32;105781;1256;71969;-74
2023/02/20 10:22:48;;;;;;;4.00;2.40;;;;;;;11.26;35.66;98999.38;105761;1255;60767;-74
2023/02/20 10:25:20;;;;;;;3.80;1.80;;;;;;;10.86;36.06;98993.63;105718;1261;61372;-77
2023/02/20 10:27:56;;;;;;;6.90;2.50;;;;;;;10.42;36.20;98997.41;106247;1257;74912;-73
2023/02/20 10:30:30;;;;;;;4.80;2.40;;;;;;;9.99;36.83;99007.30;106721;1261;69316;-75
2023/02/20 10:33:08;;;;;;;3.40;2.40;;;;;;;9.81;37.49;98998.80;106846;1253;71592;-71
2023/02/20 10:36:16;;;;;;;3.90;2.70;;;;;;;10.11;37.44;98995.95;107453;1254;60060;-73
2023/02/20 10:39:07;;;;;;;4.70;1.90;;;;;;;10.71;36.86;98984.42;106775;1256;60930;-75
2023/02/20 10:41:42;;;;;;;4.10;2.40;;;;;;;11.03;36.52;98975.33;105991;1256;74653;-73
2023/02/20 10:44:16;;;;;;;5.50;2.50;;;;;;;11.16;36.13;98971.04;105811;1255;71238;-74
2023/02/20 10:46:48;;;;;;;3.70;2.50;;;;;;;11.46;36.02;98972.99;105759;1261;73626;-75
2023/02/20 10:49:24;;;;;;;4.40;3.00;;;;;;;11.74;35.62;98973.87;105961;1256;60433;-74
2023/02/20 10:51:55;;;;;;;5.80;3.10;;;;;;;11.55;35.56;98960.52;105868;1258;60368;-73
2023/02/20 10:54:43;;;;;;;3.90;2.40;;;;;;;11.17;36.17;98956.90;106012;1254;71630;-74
2023/02/20 10:57:19;;;;;;;5.50;3.00;;;;;;;10.97;36.35;98957.61;106060;1256;69387;-79
2023/02/20 10:59:54;;;;;;;5.10;2.70;;;;;;;11.11;36.93;98946.70;106161;1256;72647;-70
2023/02/20 11:02:24;;;;;;;4.90;2.60;;;;;;;11.51;36.25;98945.00;105844;1254;61596;-77
2023/02/20 11:04:59;;;;;;;5.50;2.40;;;;;;;11.73;35.24;98945.61;105719;1256;60621;-73
2023/02/20 11:07:28;;;;;;;6.00;2.90;;;;;;;11.85;35.33;98943.30;105892;1260;75035;-73
2023/02/20 11:09:56;;;;;;;4.00;1.90;;;;;;;11.95;34.84;98945.94;105719;1258;68216;-72
2023/02/20 11:12:33;;;;;;;5.90;2.80;;;;;;;11.75;34.85;98948.41;105851;1256;72704;-73
2023/02/20 11:15:11;;;;;;;4.00;2.10;;;;;;;11.39;35.36;98940.38;105730;1256;60541;-74
2023/02/20 11:17:48;;;;;;;3.30;2.30;;;;;;;11.03;35.88;98934.26;105765;1255;60471;-75
2023/02/20 11:20:34;;;;;;;5.80;3.10;;;;;;;10.68;36.02;98930.58;105794;1256;73897;-73
2023/02/20 11:23:02;;;;;;;4.40;2.30;;;;;;;10.44;36.51;98932.90;106168;1256;71200;-73
2023/02/20 11:25:35;;;;;;;6.10;2.10;;;;;;;10.43;37.01;98932.52;105624;1256;72529;-73
2023/02/20 11:28:18;;;;;;;3.50;1.90;;;;;;;10.45;36.51;98934.82;105745;1254;60600;-74
2023/02/20 11:30:57;;;;;;;4.70;3.00;;;;;;;10.37;36.63;98935.38;105771;1255;60522;-74
2023/02/20 11:33:28;;;;;;;4.20;2.40;;;;;;;10.24;36.89;98934.38;106053;1254;75039;-74
2023/02/20 11:36:35;;;;;;;4.80;2.30;;;;;;;10.11;36.83;98933.40;107855;1256;71134;-73
2023/02/20 11:39:16;;;;;;;6.80;2.30;;;;;;;9.88;37.29;98938.45;107556;1255;72605;-71
2023/02/20 11:41:44;;;;;;;4.40;2.20;;;;;;;9.66;37.31;98936.88;105682;1255;60541;-72
2023/02/20 11:44:23;;;;;;;4.00;2.00;;;;;;;9.35;37.60;98934.98;105555;1256;61295;-72
2023/02/20 11:47:20;;;;;;;3.90;1.80;;;;;;;8.78;38.20;98935.66;105607;1260;73732;-72
2023/02/20 11:49:49;;;;;;;5.10;2.30;;;;;;;7.94;39.27;98927.80;105574;1256;70496;-70
2023/02/20 11:52:20;;;;;;;3.40;2.40;;;;;;;7.26;40.48;98931.20;105586;1258;71993;-73
2023/02/20 11:55:08;;;;;;;3.80;2.10;;;;;;;6.97;41.15;98937.90;105697;1256;60593;-71
2023/02/20 11:57:41;;;;;;;3.40;2.00;;;;;;;7.12;41.63;98934.37;105655;1258;61088;-75
2023/02/20 12:00:25;;;;;;;6.50;2.70;;;;;;;7.37;41.39;98928.15;105694;1255;72660;-74
2023/02/20 12:03:11;;;;;;;4.10;2.30;;;;;;;7.56;41.39;98926.92;105765;1258;69566;-79
2023/02/20 12:05:45;;;;;;;3.90;2.40;;;;;;;7.86;40.85;98920.40;105650;1256;73901;-77
2023/02/20 12:08:36;;;;;;;6.20;2.90;;;;;;;7.97;40.33;98917.08;105877;1256;60816;-80
2023/02/20 12:11:18;;;;;;;5.40;2.50;;;;;;;7.90;40.38;98911.77;105987;1256;61386;-80
2023/02/20 12:13:50;;;;;;;4.60;2.30;;;;;;;7.92;40.36;98913.03;106117;1255;73821;-81
2023/02/20 12:16:21;;;;;;;4.80;2.20;;;;;;;7.95;40.17;98910.94;107345;1254;70267;-80
2023/02/20 12:19:10;;;;;;;3.90;2.00;;;;;;;7.85;40.58;98917.16;107456;1255;73714;-79
2023/02/20 12:21:56;;;;;;;3.70;2.30;;;;;;;7.62;41.02;98909.55;108862;1254;60237;-82